createdAt,value
2023-02-12T00:00:37.606Z,16.88
2023-02-12T00:03:04.609Z,17.60
2023-02-12T00:05:31.472Z,10.57
2023-02-12T00:07:57.951Z,20.00
2023-02-12T00:10:24.617Z,13.40
2023-02-12T00:12:54.620Z,15.27
2023-02-12T00:15:21.448Z,16.80
2023-02-12T00:17:47.885Z,11.48
2023-02-12T00:20:14.300Z,18.05
2023-02-12T00:22:40.785Z,13.30
2023-02-12T00:25:07.405Z,13.73
2023-02-12T00:27:34.504Z,20.25
2023-02-12T00:30:00.950Z,26.17
2023-02-12T00:32:27.333Z,21.45
2023-02-12T00:34:56.067Z,23.58
2023-02-12T00:37:22.487Z,21.00
2023-02-12T00:39:48.951Z,22.80
2023-02-12T00:42:15.340Z,33.03
2023-02-12T00:44:41.736Z,25.70
2023-02-12T00:47:08.175Z,30.23
2023-02-12T00:49:34.616Z,25.55
2023-02-12T00:52:02.015Z,19.27
2023-02-12T00:54:29.178Z,21.30
2023-02-12T00:56:55.959Z,23.48
2023-02-12T00:59:23.308Z,25.73
2023-02-12T01:01:50.207Z,31.55
2023-02-12T01:04:17.175Z,23.38
2023-02-12T01:06:43.653Z,26.83
2023-02-12T01:09:10.058Z,24.02
2023-02-12T01:11:36.475Z,40.50
2023-02-12T01:14:02.998Z,43.10
2023-02-12T01:16:36.770Z,46.17
2023-02-12T01:19:04.330Z,38.15
2023-02-12T01:21:31.645Z,36.30
2023-02-12T01:23:58.192Z,36.33
2023-02-12T01:26:25.119Z,37.33
2023-02-12T01:28:52.984Z,40.58
2023-02-12T01:31:22.007Z,35.10
2023-02-12T01:33:49.473Z,57.58
2023-02-12T01:36:15.960Z,50.03
2023-02-12T01:38:42.364Z,56.50
2023-02-12T01:41:19.317Z,54.05
2023-02-12T01:43:48.827Z,39.60
2023-02-12T01:46:15.363Z,43.22
2023-02-12T01:48:47.553Z,45.50
2023-02-12T01:51:17.085Z,34.88
2023-02-12T01:53:49.039Z,56.25
2023-02-12T01:56:15.961Z,54.38
2023-02-12T01:58:43.852Z,64.68
2023-02-12T02:01:12.725Z,40.60
2023-02-12T02:03:39.927Z,58.17
2023-02-12T02:06:14.085Z,67.47
2023-02-12T02:08:41.366Z,66.05
2023-02-12T02:11:27.830Z,62.65
2023-02-12T02:14:13.374Z,90.22
2023-02-12T02:16:47.208Z,89.40
2023-02-12T02:19:24.885Z,88.95
2023-02-12T02:22:22.836Z,97.72
2023-02-12T02:25:07.288Z,106.45
2023-02-12T02:27:40.508Z,105.18
2023-02-12T02:30:14.930Z,106.82
2023-02-12T02:32:50.044Z,93.78
2023-02-12T02:35:35.201Z,102.10
2023-02-12T02:38:34.117Z,98.32
2023-02-12T02:41:03.396Z,81.20
2023-02-12T02:43:33.376Z,107.47
2023-02-12T02:46:03.042Z,94.63
2023-02-12T02:48:33.419Z,92.18
2023-02-12T02:51:03.768Z,104.25
2023-02-12T02:53:32.170Z,86.65
2023-02-12T02:56:00.164Z,78.43
2023-02-12T02:58:36.012Z,83.00
2023-02-12T03:01:14.820Z,85.93
2023-02-12T03:03:56.515Z,89.30
2023-02-12T03:06:22.883Z,72.50
2023-02-12T03:09:09.807Z,116.45
2023-02-12T03:11:36.282Z,123.35
2023-02-12T03:14:06.206Z,62.10
2023-02-12T03:16:35.005Z,88.30
2023-02-12T03:19:05.633Z,93.70
2023-02-12T03:21:44.046Z,88.85
2023-02-12T03:24:30.750Z,96.63
2023-02-12T03:27:04.955Z,109.97
2023-02-12T03:29:31.987Z,85.97
2023-02-12T03:32:01.172Z,104.53
2023-02-12T03:34:36.718Z,102.25
2023-02-12T03:37:03.099Z,119.45
2023-02-12T03:39:33.272Z,107.60
2023-02-12T03:42:07.548Z,111.90
2023-02-12T03:44:46.073Z,105.93
2023-02-12T03:47:18.550Z,145.43
2023-02-12T03:49:51.019Z,137.27
2023-02-12T03:52:17.480Z,128.70
2023-02-12T03:54:43.941Z,111.90
2023-02-12T03:57:20.799Z,111.03
2023-02-12T03:59:49.234Z,98.20
2023-02-12T04:02:16.926Z,111.90
2023-02-12T04:04:44.339Z,132.40
2023-02-12T04:07:11.083Z,137.18
2023-02-12T04:09:37.536Z,122.68
2023-02-12T04:12:03.956Z,129.82
2023-02-12T04:14:44.452Z,120.53
2023-02-12T04:17:20.423Z,94.70
2023-02-12T04:20:05.751Z,134.57
2023-02-12T04:22:50.813Z,127.57
2023-02-12T04:25:49.693Z,115.63
2023-02-12T04:28:34.733Z,99.03
2023-02-12T04:31:06.315Z,118.90
2023-02-12T04:33:35.876Z,127.43
2023-02-12T04:36:22.555Z,133.13
2023-02-12T04:38:57.716Z,102.55
2023-02-12T04:41:25.287Z,142.88
2023-02-12T04:43:51.682Z,113.97
2023-02-12T04:46:18.146Z,156.50
2023-02-12T04:48:52.076Z,141.15
2023-02-12T04:51:18.486Z,134.23
2023-02-12T04:53:45.090Z,101.38
2023-02-12T04:56:13.058Z,133.30
2023-02-12T04:58:40.180Z,117.75
2023-02-12T05:01:07.018Z,139.85
2023-02-12T05:03:33.441Z,124.78
2023-02-12T05:06:06.648Z,174.80
2023-02-12T05:08:33.409Z,134.57
2023-02-12T05:11:06.959Z,115.03
2023-02-12T05:13:33.502Z,122.45
2023-02-12T05:16:00.012Z,132.73
2023-02-12T05:18:26.492Z,166.27
2023-02-12T05:20:57.020Z,219.48
2023-02-12T05:23:23.891Z,176.75
2023-02-12T05:25:50.441Z,248.82
2023-02-12T05:28:16.870Z,158.10
2023-02-12T05:30:43.405Z,209.27
2023-02-12T05:33:09.882Z,198.70
2023-02-12T05:35:36.360Z,206.93
2023-02-12T05:38:03.045Z,110.78
2023-02-12T05:40:29.491Z,112.10
2023-02-12T05:43:00.000Z,117.30
2023-02-12T05:45:28.049Z,133.18
2023-02-12T05:47:54.672Z,139.80
2023-02-12T05:50:21.153Z,140.98
2023-02-12T05:52:47.654Z,155.50
2023-02-12T05:55:14.307Z,154.95
2023-02-12T05:57:40.711Z,173.85
2023-02-12T06:00:08.547Z,169.23
2023-02-12T06:02:35.212Z,191.48
2023-02-12T06:05:02.071Z,152.05
2023-02-12T06:07:28.700Z,196.75
2023-02-12T06:09:55.264Z,167.20
2023-02-12T06:12:21.716Z,134.93
2023-02-12T06:14:48.103Z,252.90
2023-02-12T06:17:14.566Z,249.95
2023-02-12T06:19:41.141Z,159.73
2023-02-12T06:22:07.517Z,232.73
2023-02-12T06:24:34.035Z,163.90
2023-02-12T06:27:00.449Z,155.60
2023-02-12T06:29:26.870Z,176.57
2023-02-12T06:31:53.422Z,168.88
2023-02-12T06:34:19.960Z,161.25
2023-02-12T06:36:47.132Z,149.32
2023-02-12T06:39:14.999Z,142.90
2023-02-12T06:41:41.472Z,208.85
2023-02-12T06:44:08.354Z,142.20
2023-02-12T06:46:34.819Z,93.65
2023-02-12T06:49:01.475Z,120.45
2023-02-12T06:51:29.038Z,80.63
2023-02-12T06:53:55.879Z,88.07
2023-02-12T06:56:23.566Z,52.95
2023-02-12T06:58:56.720Z,50.45
2023-02-12T07:01:27.423Z,43.45
2023-02-12T07:03:54.925Z,44.30
2023-02-12T07:06:22.074Z,49.40
2023-02-12T07:08:48.712Z,42.28
2023-02-12T07:11:15.714Z,40.00
2023-02-12T07:13:42.711Z,45.55
2023-02-12T07:16:13.631Z,28.73
2023-02-12T07:18:40.390Z,30.85
2023-02-12T07:21:07.828Z,32.08
2023-02-12T07:23:34.758Z,30.10
2023-02-12T07:26:02.331Z,37.17
2023-02-12T07:28:28.919Z,34.00
2023-02-12T07:30:55.436Z,29.08
2023-02-12T07:33:21.845Z,28.58
2023-02-12T07:35:48.389Z,36.88
2023-02-12T07:38:15.150Z,34.17
2023-02-12T07:40:41.677Z,40.30
2023-02-12T07:43:08.077Z,35.72
2023-02-12T07:45:34.498Z,43.45
2023-02-12T07:48:00.954Z,30.08
2023-02-12T07:50:27.360Z,38.33
2023-02-12T07:52:53.770Z,33.97
2023-02-12T07:55:20.206Z,29.98
2023-02-12T07:57:46.637Z,30.67
2023-02-12T08:00:13.332Z,35.67
2023-02-12T08:02:42.660Z,39.90
2023-02-12T08:05:09.095Z,28.77
2023-02-12T08:07:35.564Z,32.90
2023-02-12T08:10:02.046Z,28.20
2023-02-12T08:12:28.532Z,27.33
2023-02-12T08:14:55.002Z,23.95
2023-02-12T08:17:21.382Z,27.67
2023-02-12T08:19:47.801Z,29.65
2023-02-12T08:22:14.315Z,49.72
2023-02-12T08:24:40.768Z,36.13
2023-02-12T08:27:07.214Z,32.80
2023-02-12T08:29:33.616Z,34.08
2023-02-12T08:32:03.612Z,34.45
2023-02-12T08:34:31.522Z,35.97
2023-02-12T08:36:58.182Z,28.52
2023-02-12T08:39:25.562Z,28.10
2023-02-12T08:41:54.204Z,40.05
2023-02-12T08:44:20.718Z,41.22
2023-02-12T08:46:48.510Z,36.88
2023-02-12T08:49:21.988Z,32.15
2023-02-12T08:51:49.563Z,31.38
2023-02-12T08:54:20.259Z,26.02
2023-02-12T08:56:47.007Z,32.88
2023-02-12T08:59:16.804Z,32.63
2023-02-12T09:01:43.745Z,28.70
2023-02-12T09:04:15.182Z,30.90
2023-02-12T09:06:41.624Z,29.40
2023-02-12T09:09:08.033Z,30.42
2023-02-12T09:11:35.147Z,30.67
2023-02-12T09:14:02.672Z,37.72
2023-02-12T09:16:30.189Z,24.25
2023-02-12T09:18:57.059Z,26.13
2023-02-12T09:21:23.492Z,30.85
2023-02-12T09:23:50.285Z,38.90
2023-02-12T09:26:23.726Z,31.52
2023-02-12T09:28:50.555Z,32.72
2023-02-12T09:31:23.214Z,25.45
2023-02-12T09:33:53.357Z,32.13
2023-02-12T09:36:21.285Z,29.00
2023-02-12T09:38:48.838Z,24.75
2023-02-12T09:41:21.454Z,27.83
2023-02-12T09:44:06.623Z,28.13
2023-02-12T09:46:43.247Z,19.00
2023-02-12T09:49:18.257Z,25.80
2023-02-12T09:51:51.251Z,21.38
2023-02-12T09:54:19.479Z,33.20
2023-02-12T09:56:55.567Z,19.80
2023-02-12T09:59:33.895Z,31.05
2023-02-12T10:02:00.573Z,22.77
2023-02-12T10:04:28.146Z,22.35
2023-02-12T10:07:14.856Z,20.40
2023-02-12T10:09:51.324Z,20.33
2023-02-12T10:12:34.068Z,23.85
2023-02-12T10:15:06.627Z,26.70
2023-02-12T10:17:36.237Z,28.70
2023-02-12T10:20:16.107Z,29.20
2023-02-12T10:22:56.914Z,24.15
2023-02-12T10:25:41.181Z,19.90
2023-02-12T10:28:16.985Z,22.48
2023-02-12T10:30:45.257Z,19.67
2023-02-12T10:33:14.630Z,27.85
2023-02-12T10:35:43.721Z,31.75
2023-02-12T10:38:21.455Z,18.42
2023-02-12T10:40:50.261Z,17.95
2023-02-12T10:43:16.680Z,21.70
2023-02-12T10:45:43.941Z,23.40
2023-02-12T10:48:20.818Z,21.27
2023-02-12T10:50:55.907Z,23.48
2023-02-12T10:53:29.534Z,20.30
2023-02-12T10:56:14.716Z,20.25
2023-02-12T10:58:50.276Z,16.52
2023-02-12T11:01:19.906Z,21.75
2023-02-12T11:03:46.359Z,24.77
2023-02-12T11:06:31.843Z,32.88
2023-02-12T11:08:59.192Z,27.08
2023-02-12T11:11:32.836Z,30.65
2023-02-12T11:14:19.603Z,22.85
2023-02-12T11:16:53.881Z,23.98
2023-02-12T11:19:30.818Z,21.83
2023-02-12T11:22:18.576Z,19.23
2023-02-12T11:24:46.789Z,17.25
2023-02-12T11:27:16.313Z,16.45
2023-02-12T11:29:51.211Z,19.20
2023-02-12T11:32:18.927Z,24.98
2023-02-12T11:35:03.846Z,14.50
2023-02-12T11:37:33.140Z,21.88
2023-02-12T11:39:59.796Z,19.58
2023-02-12T11:42:26.553Z,19.02
2023-02-12T11:44:57.636Z,17.88
2023-02-12T11:47:27.004Z,16.38
2023-02-12T11:50:11.592Z,16.55
2023-02-12T11:52:41.382Z,10.23
2023-02-12T11:55:24.921Z,18.73
2023-02-12T11:57:52.882Z,16.65
2023-02-12T12:00:28.469Z,16.92
2023-02-12T12:03:16.749Z,17.15
2023-02-12T12:05:48.275Z,11.23
2023-02-12T12:08:19.742Z,8.30
2023-02-12T12:10:51.782Z,20.98
2023-02-12T12:13:25.043Z,12.27
2023-02-12T12:16:23.319Z,14.45
2023-02-12T12:19:15.298Z,9.07
2023-02-12T12:21:45.544Z,12.73
2023-02-12T12:24:17.442Z,17.33
2023-02-12T12:26:46.209Z,18.70
2023-02-12T12:29:24.902Z,13.45
2023-02-12T12:31:58.060Z,12.32
2023-02-12T12:34:26.067Z,18.13
2023-02-12T12:36:58.592Z,11.35
2023-02-12T12:39:33.069Z,14.27
2023-02-12T12:41:59.505Z,11.40
2023-02-12T12:44:32.096Z,10.95
2023-02-12T12:47:17.265Z,11.55
2023-02-12T12:49:46.760Z,7.65
2023-02-12T12:52:13.167Z,11.43
2023-02-12T12:54:39.543Z,10.50
2023-02-12T12:57:24.601Z,6.72
2023-02-12T12:59:59.336Z,5.60
2023-02-12T13:02:31.618Z,9.65
2023-02-12T13:05:01.164Z,10.23
2023-02-12T13:07:28.950Z,14.18
2023-02-12T13:10:01.892Z,6.25
2023-02-12T13:12:31.386Z,7.55
2023-02-12T13:15:16.670Z,6.40
2023-02-12T13:17:47.049Z,8.15
2023-02-12T13:20:16.653Z,7.20
2023-02-12T13:23:01.451Z,10.13
2023-02-12T13:25:31.128Z,10.85
2023-02-12T13:27:59.351Z,8.25
2023-02-12T13:30:31.311Z,8.23
2023-02-12T13:33:09.944Z,6.18
2023-02-12T13:35:38.171Z,8.80
2023-02-12T13:38:06.157Z,7.85
2023-02-12T13:40:32.846Z,9.25
2023-02-12T13:43:08.779Z,6.07
2023-02-12T13:45:35.147Z,11.52
2023-02-12T13:48:10.451Z,9.43
2023-02-12T13:50:49.240Z,9.05
2023-02-12T13:53:21.201Z,8.25
2023-02-12T13:55:47.633Z,6.10
2023-02-12T13:58:32.463Z,10.68
2023-02-12T14:01:03.443Z,5.45
2023-02-12T14:03:30.432Z,7.35
2023-02-12T14:06:09.282Z,3.95
2023-02-12T14:08:37.037Z,7.55
2023-02-12T14:11:05.033Z,5.82
2023-02-12T14:13:45.939Z,8.52
2023-02-12T14:18:38.796Z,6.53
2023-02-12T14:21:11.464Z,8.15
2023-02-12T14:23:39.143Z,4.28
2023-02-12T14:26:07.587Z,5.07
2023-02-12T14:28:34.617Z,5.80
2023-02-12T14:31:19.959Z,3.95
2023-02-12T14:33:47.425Z,6.97
2023-02-12T14:36:13.938Z,5.45
2023-02-12T14:38:47.516Z,5.53
2023-02-12T14:41:37.488Z,9.15
2023-02-12T14:44:29.352Z,14.90
2023-02-12T14:46:55.862Z,8.40
2023-02-12T14:49:30.342Z,11.55
2023-02-12T14:52:05.850Z,9.05
2023-02-12T14:54:41.240Z,7.97
2023-02-12T14:57:30.856Z,9.60
2023-02-12T14:59:57.249Z,9.02
2023-02-12T15:02:28.626Z,8.02
2023-02-12T15:04:58.416Z,7.05
2023-02-12T15:07:33.438Z,13.52
2023-02-12T15:10:10.234Z,14.35
2023-02-12T15:12:41.451Z,5.93
2023-02-12T15:15:08.713Z,7.72
2023-02-12T15:17:39.623Z,14.57
2023-02-12T15:22:32.669Z,10.52
2023-02-12T15:25:15.789Z,6.53
2023-02-12T15:27:46.692Z,10.23
2023-02-12T15:30:26.437Z,12.48
2023-02-12T15:32:54.478Z,9.77
2023-02-12T15:35:31.741Z,9.25
2023-02-12T15:38:01.974Z,6.13
2023-02-12T15:40:29.372Z,5.85
2023-02-12T15:42:57.207Z,15.70
2023-02-12T15:45:25.095Z,7.82
2023-02-12T15:47:56.752Z,15.10
2023-02-12T15:50:23.641Z,15.82
2023-02-12T15:52:50.876Z,7.57
2023-02-12T15:55:18.890Z,24.15
2023-02-12T15:57:57.355Z,14.70
2023-02-12T16:00:29.915Z,14.57
2023-02-12T16:02:56.365Z,10.30
2023-02-12T16:05:23.192Z,20.70
2023-02-12T16:07:49.630Z,13.38
2023-02-12T16:10:17.907Z,23.10
2023-02-12T16:12:44.616Z,13.45
2023-02-12T16:15:24.866Z,7.20
2023-02-12T16:17:51.300Z,17.95
2023-02-12T16:20:20.350Z,13.13
2023-02-12T16:22:48.173Z,11.68
2023-02-12T16:25:18.846Z,16.05
2023-02-12T16:28:13.408Z,17.30
2023-02-12T16:30:42.918Z,10.93
2023-02-12T16:33:27.946Z,10.63
2023-02-12T16:36:01.459Z,12.23
2023-02-12T16:38:38.915Z,7.78
2023-02-12T16:41:16.044Z,11.30
2023-02-12T16:43:42.484Z,12.77
2023-02-12T16:46:09.287Z,14.55
2023-02-12T16:48:40.333Z,13.40
2023-02-12T16:51:06.909Z,9.80
2023-02-12T16:53:34.987Z,14.43
2023-02-12T16:56:02.763Z,14.90
2023-02-12T16:58:29.188Z,9.32
2023-02-12T17:00:57.368Z,18.17
2023-02-12T17:03:24.601Z,15.32
2023-02-12T17:05:52.468Z,10.40
2023-02-12T17:08:20.799Z,14.68
2023-02-12T17:10:50.242Z,14.25
2023-02-12T17:13:17.079Z,14.80
2023-02-12T17:15:46.969Z,19.48
2023-02-12T17:18:17.297Z,18.48
2023-02-12T17:20:47.741Z,14.25
2023-02-12T17:23:14.248Z,17.45
2023-02-12T17:25:41.239Z,15.73
2023-02-12T17:28:08.791Z,10.80
2023-02-12T17:30:35.260Z,10.35
2023-02-12T17:33:01.674Z,18.67
2023-02-12T17:35:28.053Z,13.45
2023-02-12T17:37:57.471Z,14.45
2023-02-12T17:40:23.939Z,16.05
2023-02-12T17:42:50.378Z,15.88
2023-02-12T17:45:17.281Z,14.57
2023-02-12T17:47:43.691Z,12.88
2023-02-12T17:50:10.830Z,22.50
2023-02-12T17:52:37.277Z,17.25
2023-02-12T17:55:04.170Z,16.83
2023-02-12T17:57:30.597Z,11.65
2023-02-12T17:59:57.036Z,12.23
2023-02-12T18:02:23.452Z,18.75
2023-02-12T18:04:49.888Z,17.55
2023-02-12T18:07:16.334Z,13.88
2023-02-12T18:09:42.865Z,14.63
2023-02-12T18:12:09.581Z,12.43
2023-02-12T18:14:36.023Z,18.33
2023-02-12T18:17:02.441Z,15.27
2023-02-12T18:19:32.058Z,15.30
2023-02-12T18:21:58.468Z,19.48
2023-02-12T18:24:24.918Z,17.20
2023-02-12T18:26:51.663Z,14.13
2023-02-12T18:29:18.072Z,22.65
2023-02-12T18:31:44.632Z,14.60
2023-02-12T18:34:11.129Z,20.92
2023-02-12T18:36:39.362Z,14.82
2023-02-12T18:39:05.774Z,20.05
2023-02-12T18:41:32.853Z,16.85
2023-02-12T18:43:59.880Z,13.30
2023-02-12T18:46:27.827Z,19.48
2023-02-12T18:48:54.412Z,21.15
2023-02-12T18:51:22.627Z,16.75
2023-02-12T18:53:55.421Z,19.02
2023-02-12T18:56:21.866Z,21.92
2023-02-12T18:58:48.255Z,18.70
2023-02-12T19:01:19.101Z,16.35
2023-02-12T19:06:11.986Z,18.83
2023-02-12T19:08:38.476Z,20.38
2023-02-12T19:11:05.875Z,12.45
2023-02-12T19:13:32.261Z,17.58
2023-02-12T19:15:58.681Z,18.45
2023-02-12T19:18:25.185Z,18.38
2023-02-12T19:20:51.591Z,15.23
2023-02-12T19:23:18.024Z,18.98
2023-02-12T19:25:45.255Z,9.50
2023-02-12T19:28:14.794Z,15.68
2023-02-12T19:30:41.278Z,24.73
2023-02-12T19:33:07.661Z,20.48
2023-02-12T19:35:34.451Z,14.40
2023-02-12T19:38:01.822Z,24.80
2023-02-12T19:40:28.291Z,17.75
2023-02-12T19:42:54.782Z,17.25
2023-02-12T19:45:21.362Z,22.02
2023-02-12T19:47:47.795Z,24.00
2023-02-12T19:50:14.204Z,18.83
2023-02-12T19:52:41.375Z,26.17
2023-02-12T19:55:07.926Z,14.73
2023-02-12T19:57:36.706Z,15.38
2023-02-12T20:00:03.601Z,20.58
2023-02-12T20:02:30.074Z,26.20
2023-02-12T20:04:56.510Z,13.55
2023-02-12T20:07:22.899Z,18.35
2023-02-12T20:09:52.550Z,17.42
2023-02-12T20:12:19.090Z,14.40
2023-02-12T20:14:45.497Z,17.55
2023-02-12T20:17:11.897Z,15.55
2023-02-12T20:19:38.300Z,25.75
2023-02-12T20:22:04.705Z,15.57
2023-02-12T20:24:32.066Z,11.70
2023-02-12T20:27:01.212Z,18.80
2023-02-12T20:29:28.013Z,21.15
2023-02-12T20:31:54.607Z,18.75
2023-02-12T20:34:22.041Z,19.70
2023-02-12T20:36:48.793Z,19.40
2023-02-12T20:39:17.266Z,12.93
2023-02-12T20:41:43.702Z,13.45
2023-02-12T20:44:13.282Z,16.50
2023-02-12T20:46:40.272Z,19.95
2023-02-12T20:49:06.887Z,14.70
2023-02-12T20:51:33.483Z,13.48
2023-02-12T20:54:00.736Z,13.88
2023-02-12T20:56:28.645Z,12.20
2023-02-12T20:58:55.423Z,14.73
2023-02-12T21:01:26.818Z,20.63
2023-02-12T21:03:54.353Z,27.15
2023-02-12T21:06:21.682Z,17.23
2023-02-12T21:08:48.408Z,23.98
2023-02-12T21:11:16.304Z,16.55
2023-02-12T21:13:53.726Z,20.83
2023-02-12T21:16:32.554Z,18.05
2023-02-12T21:18:59.575Z,20.25
2023-02-12T21:21:30.126Z,13.13
2023-02-12T21:23:57.553Z,14.98
2023-02-12T21:26:24.784Z,11.18
2023-02-12T21:28:52.176Z,17.75
2023-02-12T21:31:18.619Z,19.38
2023-02-12T21:33:46.195Z,10.07
2023-02-12T21:36:23.440Z,17.85
2023-02-12T21:38:50.442Z,22.02
2023-02-12T21:41:18.252Z,15.63
2023-02-12T21:43:45.759Z,15.75
2023-02-12T21:46:12.681Z,13.85
2023-02-12T21:48:41.313Z,20.90
2023-02-12T21:51:16.456Z,11.32
2023-02-12T21:53:42.856Z,32.13
2023-02-12T21:56:09.248Z,21.55
2023-02-12T21:58:35.674Z,20.65
2023-02-12T22:01:05.951Z,16.23
2023-02-12T22:03:32.372Z,12.25
2023-02-12T22:06:02.552Z,17.95
2023-02-12T22:08:28.964Z,22.88
2023-02-12T22:10:55.740Z,16.42
2023-02-12T22:13:22.347Z,13.80
2023-02-12T22:15:48.904Z,14.13
2023-02-12T22:18:15.363Z,15.48
2023-02-12T22:20:41.798Z,12.75
2023-02-12T22:23:08.317Z,14.13
2023-02-12T22:25:34.711Z,19.35
2023-02-12T22:28:01.165Z,18.55
2023-02-12T22:30:27.704Z,17.27
2023-02-12T22:32:54.086Z,24.88
2023-02-12T22:35:20.579Z,21.67
2023-02-12T22:37:47.002Z,20.77
2023-02-12T22:40:15.615Z,18.05
2023-02-12T22:42:42.021Z,15.50
2023-02-12T22:45:08.599Z,15.32
2023-02-12T22:47:35.003Z,15.40
2023-02-12T22:50:01.650Z,17.17
2023-02-12T22:52:28.727Z,18.27
2023-02-12T22:54:55.236Z,12.82
2023-02-12T22:57:21.745Z,16.00
2023-02-12T22:59:49.159Z,24.10
2023-02-12T23:02:15.821Z,14.43
2023-02-12T23:04:42.275Z,15.60
2023-02-12T23:07:08.785Z,33.00
2023-02-12T23:09:35.243Z,13.63
2023-02-12T23:12:01.918Z,19.25
2023-02-12T23:14:28.322Z,20.02
2023-02-12T23:16:54.794Z,23.25
2023-02-12T23:19:21.410Z,16.77
2023-02-12T23:21:50.644Z,28.05
2023-02-12T23:24:17.060Z,17.80
2023-02-12T23:26:43.501Z,15.75
2023-02-12T23:29:09.941Z,21.05
2023-02-12T23:31:36.499Z,12.95
2023-02-12T23:34:03.308Z,21.15
2023-02-12T23:36:29.755Z,22.58
2023-02-12T23:38:56.203Z,15.93
2023-02-12T23:41:22.690Z,23.20
2023-02-12T23:43:49.109Z,14.65
2023-02-12T23:46:15.607Z,22.85
2023-02-12T23:48:42.216Z,24.25
2023-02-12T23:51:08.697Z,17.67
2023-02-12T23:53:35.127Z,16.35
2023-02-12T23:56:01.609Z,23.52
2023-02-12T23:58:28.105Z,20.27
